createdAt,value
2019-02-05T00:00:30.614Z,82.37
2019-02-05T00:03:03.910Z,83.52
2019-02-05T00:05:34.547Z,83.52
2019-02-05T00:08:05.654Z,83.74
2019-02-05T00:10:36.566Z,84.10
2019-02-05T00:13:07.733Z,84.24
2019-02-05T00:15:38.683Z,84.15
2019-02-05T00:18:09.259Z,84.22
2019-02-05T00:20:39.985Z,84.51
2019-02-05T00:23:10.805Z,84.74
2019-02-05T00:25:41.316Z,85.23
2019-02-05T00:28:12.948Z,85.58
2019-02-05T00:30:43.507Z,85.85
2019-02-05T00:33:14.113Z,86.04
2019-02-05T00:35:44.710Z,86.09
2019-02-05T00:38:15.729Z,86.21
2019-02-05T00:40:46.720Z,86.19
2019-02-05T00:43:17.308Z,86.21
2019-02-05T00:45:47.987Z,86.22
2019-02-05T00:48:18.766Z,86.28
2019-02-05T00:50:49.386Z,86.26
2019-02-05T00:53:19.977Z,86.15
2019-02-05T00:55:50.523Z,86.05
2019-02-05T00:58:21.144Z,86.20
2019-02-05T01:00:51.802Z,86.27
2019-02-05T01:03:22.537Z,86.27
2019-02-05T01:05:53.115Z,86.23
2019-02-05T01:08:24.124Z,86.12
2019-02-05T01:10:54.786Z,86.15
2019-02-05T01:13:25.841Z,86.19
2019-02-05T01:15:56.615Z,86.29
2019-02-05T01:18:27.526Z,86.37
2019-02-05T01:20:58.774Z,86.22
2019-02-05T01:23:48.427Z,86.25
2019-02-05T01:26:28.910Z,86.21
2019-02-05T01:28:53.910Z,86.39
2019-02-05T01:31:25.129Z,86.37
2019-02-05T01:33:56.075Z,86.36
2019-02-05T01:36:27.118Z,86.44
2019-02-05T01:38:58.324Z,86.37
2019-02-05T01:41:31.188Z,86.44
2019-02-05T01:44:02.179Z,86.54
2019-02-05T01:46:32.953Z,86.60
2019-02-05T01:49:03.498Z,86.62
2019-02-05T01:51:34.534Z,86.62
2019-02-05T01:54:06.890Z,86.68
2019-02-05T01:56:40.791Z,86.71
2019-02-05T01:59:11.314Z,86.76
2019-02-05T02:01:42.438Z,86.71
2019-02-05T02:04:13.278Z,86.71
2019-02-05T02:06:45.190Z,86.55
2019-02-05T02:09:15.863Z,86.70
2019-02-05T02:11:46.509Z,86.85
2019-02-05T02:14:17.058Z,86.83
2019-02-05T02:16:47.700Z,86.72
2019-02-05T02:19:18.316Z,86.81
2019-02-05T02:21:49.414Z,86.61
2019-02-05T02:24:21.448Z,86.44
2019-02-05T02:26:52.520Z,86.43
2019-02-05T02:29:23.020Z,86.17
2019-02-05T02:31:53.613Z,86.10
2019-02-05T02:34:24.346Z,86.03
2019-02-05T02:36:55.087Z,85.98
2019-02-05T02:39:27.044Z,85.95
2019-02-05T02:41:59.318Z,85.83
2019-02-05T02:44:30.364Z,85.91
2019-02-05T02:47:00.969Z,85.98
2019-02-05T02:49:33.236Z,86.12
2019-02-05T02:52:03.933Z,86.22
2019-02-05T02:54:35.374Z,86.03
2019-02-05T02:57:06.555Z,86.00
2019-02-05T02:59:37.295Z,86.08
2019-02-05T03:02:09.455Z,86.50
2019-02-05T03:04:40.586Z,86.30
2019-02-05T03:07:11.275Z,86.30
2019-02-05T03:09:43.172Z,86.12
2019-02-05T03:12:13.870Z,85.97
2019-02-05T03:14:44.993Z,85.97
2019-02-05T03:17:17.132Z,85.96
2019-02-05T03:19:49.304Z,85.76
2019-02-05T03:22:20.345Z,85.94
2019-02-05T03:24:51.424Z,86.07
2019-02-05T03:27:22.485Z,86.07
2019-02-05T03:29:53.555Z,85.93
2019-02-05T03:34:54.755Z,85.81
2019-02-05T03:37:25.502Z,85.78
2019-02-05T03:39:56.547Z,85.83
2019-02-05T03:42:28.962Z,85.82
2019-02-05T03:45:00.353Z,85.91
2019-02-05T03:47:28.601Z,85.97
2019-02-05T03:49:59.480Z,85.95
2019-02-05T03:52:54.668Z,85.73
2019-02-05T03:55:52.421Z,85.77
2019-02-05T03:58:57.924Z,86.05
2019-02-05T04:01:56.853Z,86.19
2019-02-05T04:05:03.240Z,86.23
2019-02-05T04:08:10.120Z,85.89
2019-02-05T04:11:06.092Z,85.83
2019-02-05T04:14:18.552Z,85.86
2019-02-05T04:17:24.218Z,85.93
2019-02-05T04:20:36.227Z,86.08
2019-02-05T04:23:39.072Z,86.38
2019-02-05T04:26:52.488Z,86.35
2019-02-05T04:29:52.913Z,86.46
2019-02-05T04:32:40.658Z,86.45
2019-02-05T04:36:09.592Z,86.51
2019-02-05T04:39:22.795Z,86.72
2019-02-05T04:42:28.726Z,86.88
2019-02-05T04:45:34.543Z,87.07
2019-02-05T04:48:37.438Z,87.16
2019-02-05T04:51:43.814Z,87.14
2019-02-05T04:54:49.719Z,87.26
2019-02-05T04:57:58.025Z,87.32
2019-02-05T05:01:20.639Z,87.30
2019-02-05T05:04:33.673Z,87.34
2019-02-05T05:07:37.485Z,87.23
2019-02-05T05:10:09.070Z,87.21
2019-02-05T05:12:39.846Z,87.36
2019-02-05T05:15:12.359Z,87.26
2019-02-05T05:17:43.130Z,87.27
2019-02-05T05:20:14.419Z,87.25
2019-02-05T05:22:45.260Z,87.21
2019-02-05T05:25:16.003Z,87.19
2019-02-05T05:27:46.650Z,87.16
2019-02-05T05:30:19.907Z,87.02
2019-02-05T05:32:50.969Z,86.88
2019-02-05T05:35:21.553Z,86.67
2019-02-05T05:37:52.583Z,86.56
2019-02-05T05:40:23.274Z,86.49
2019-02-05T05:42:54.145Z,86.28
2019-02-05T05:45:25.327Z,85.89
2019-02-05T05:47:56.270Z,85.84
2019-02-05T05:50:28.677Z,85.73
2019-02-05T05:52:59.632Z,85.55
2019-02-05T05:55:30.497Z,85.28
2019-02-05T05:58:01.913Z,85.19
2019-02-05T06:00:33.257Z,85.32
2019-02-05T06:03:05.358Z,85.31
2019-02-05T06:05:36.256Z,84.98
2019-02-05T06:08:07.396Z,84.60
2019-02-05T06:10:38.305Z,84.55
2019-02-05T06:13:09.306Z,84.35
2019-02-05T06:15:40.464Z,83.97
2019-02-05T06:18:10.939Z,84.04
2019-02-05T06:20:41.624Z,83.66
2019-02-05T06:23:12.482Z,83.40
2019-02-05T06:25:42.960Z,83.20
2019-02-05T06:28:13.743Z,83.21
2019-02-05T06:30:44.441Z,82.93
2019-02-05T06:33:15.289Z,82.67
2019-02-05T06:35:46.121Z,82.54
2019-02-05T06:38:16.851Z,82.41
2019-02-05T06:40:47.755Z,82.11
2019-02-05T06:43:18.875Z,81.99
2019-02-05T06:45:49.465Z,82.09
2019-02-05T06:48:20.456Z,82.01
2019-02-05T06:50:51.026Z,82.05
2019-02-05T06:53:21.627Z,81.89
2019-02-05T06:55:52.487Z,81.25
2019-02-05T06:58:23.332Z,80.66
2019-02-05T07:00:55.641Z,79.95
2019-02-05T07:03:26.724Z,78.75
2019-02-05T07:06:53.537Z,78.57
2019-02-05T07:09:25.500Z,78.42
2019-02-05T07:11:56.453Z,78.42
2019-02-05T07:15:00.343Z,79.24
2019-02-05T07:17:31.702Z,79.42
2019-02-05T07:20:02.722Z,79.54
2019-02-05T07:22:33.687Z,79.43
2019-02-05T07:25:05.549Z,79.43
2019-02-05T07:27:36.393Z,79.89
2019-02-05T07:30:09.854Z,79.60
2019-02-05T07:32:40.908Z,79.60
2019-02-05T07:35:12.778Z,79.08
2019-02-05T07:37:44.411Z,78.86
2019-02-05T07:40:16.812Z,77.49
2019-02-05T07:42:47.499Z,77.97
2019-02-05T07:45:19.591Z,77.97
2019-02-05T07:47:50.265Z,77.37
2019-02-05T07:50:24.358Z,77.04
2019-02-05T07:52:55.365Z,77.04
2019-02-05T07:55:26.838Z,77.55
2019-02-05T07:57:57.910Z,77.46
2019-02-05T08:00:29.929Z,77.39
2019-02-05T08:03:00.718Z,77.41
2019-02-05T08:05:33.236Z,77.26
2019-02-05T08:08:04.090Z,77.26
2019-02-05T08:10:34.807Z,77.28
2019-02-05T08:13:05.672Z,77.29
2019-02-05T08:15:36.494Z,76.43
2019-02-05T08:18:07.514Z,76.20
2019-02-05T08:20:38.080Z,75.98
2019-02-05T08:23:08.731Z,75.98
2019-02-05T08:25:39.343Z,76.20
2019-02-05T08:28:10.758Z,76.30
2019-02-05T08:30:43.781Z,76.08
2019-02-05T08:33:14.421Z,74.80
2019-02-05T08:35:45.052Z,75.16
2019-02-05T08:38:16.142Z,75.22
2019-02-05T08:40:47.052Z,74.86
2019-02-05T08:43:17.612Z,74.86
2019-02-05T08:45:56.351Z,74.17
2019-02-05T08:48:21.848Z,74.17
2019-02-05T08:50:52.473Z,73.90
2019-02-05T08:53:23.258Z,73.28
2019-02-05T08:55:53.919Z,73.28
2019-02-05T08:58:31.031Z,71.77
2019-02-05T09:00:57.727Z,71.43
2019-02-05T09:03:28.322Z,71.43
2019-02-05T09:05:59.078Z,71.49
2019-02-05T09:08:29.794Z,71.73
2019-02-05T09:11:00.416Z,71.50
2019-02-05T09:13:31.050Z,71.72
2019-02-05T09:16:02.567Z,70.24
2019-02-05T09:18:33.661Z,70.18
2019-02-05T09:21:05.229Z,69.32
2019-02-05T09:23:36.255Z,67.90
2019-02-05T09:26:06.613Z,70.26
2019-02-05T09:28:37.210Z,70.26
2019-02-05T09:31:08.581Z,69.44
2019-02-05T09:33:39.787Z,69.44
2019-02-05T09:36:10.609Z,69.61
2019-02-05T09:38:41.535Z,69.11
2019-02-05T09:41:12.112Z,68.58
2019-02-05T09:43:42.662Z,68.93
2019-02-05T09:46:13.100Z,68.44
2019-02-05T09:48:44.577Z,68.98
2019-02-05T09:51:15.861Z,68.98
2019-02-05T09:53:46.513Z,68.83
2019-02-05T09:56:16.966Z,68.76
2019-02-05T09:58:47.637Z,67.80
2019-02-05T10:01:18.327Z,67.12
2019-02-05T10:03:48.714Z,66.80
2019-02-05T10:06:19.427Z,66.80
2019-02-05T10:08:50.127Z,66.53
2019-02-05T10:11:20.509Z,66.50
2019-02-05T10:13:53.049Z,65.49
2019-02-05T10:16:25.718Z,65.12
2019-02-05T10:18:56.827Z,65.13
2019-02-05T10:21:27.865Z,65.18
2019-02-05T10:23:59.649Z,65.50
2019-02-05T10:26:31.267Z,64.98
2019-02-05T10:29:02.305Z,64.49
2019-02-05T10:31:33.195Z,64.58
2019-02-05T10:34:04.537Z,64.71
2019-02-05T10:36:35.613Z,65.44
2019-02-05T10:39:10.167Z,64.95
2019-02-05T10:41:40.762Z,64.23
2019-02-05T10:44:11.682Z,64.33
2019-02-05T10:46:42.043Z,64.45
2019-02-05T10:49:13.604Z,64.57
2019-02-05T10:51:44.873Z,64.88
2019-02-05T10:54:14.257Z,64.48
2019-02-05T10:56:44.655Z,64.07
2019-02-05T10:59:15.189Z,64.03
2019-02-05T11:01:46.464Z,64.28
2019-02-05T11:04:17.173Z,64.14
2019-02-05T11:06:47.886Z,63.63
2019-02-05T11:09:19.603Z,64.22
2019-02-05T11:11:50.464Z,64.10
2019-02-05T11:14:21.475Z,64.63
2019-02-05T11:16:54.516Z,63.99
2019-02-05T11:19:25.069Z,63.56
2019-02-05T11:21:57.225Z,64.73
2019-02-05T11:24:27.822Z,64.42
2019-02-05T11:26:58.339Z,64.09
2019-02-05T11:29:28.888Z,63.93
2019-02-05T11:31:59.506Z,64.28
2019-02-05T11:34:29.940Z,64.76
2019-02-05T11:37:00.825Z,64.93
2019-02-05T11:39:31.351Z,63.40
2019-02-05T11:42:02.098Z,62.94
2019-02-05T11:44:32.460Z,63.21
2019-02-05T11:47:03.902Z,64.92
2019-02-05T11:49:36.016Z,65.22
2019-02-05T11:52:06.405Z,64.47
2019-02-05T11:54:37.120Z,64.33
2019-02-05T11:57:07.536Z,63.89
2019-02-05T11:59:37.740Z,64.41
2019-02-05T12:02:09.736Z,64.18
2019-02-05T12:04:40.145Z,64.09
2019-02-05T12:07:10.547Z,63.48
2019-02-05T12:09:41.426Z,63.58
2019-02-05T12:12:11.761Z,62.97
2019-02-05T12:14:42.091Z,61.50
2019-02-05T12:17:12.862Z,62.66
2019-02-05T12:19:43.119Z,63.07
2019-02-05T12:22:13.824Z,61.99
2019-02-05T12:24:44.607Z,64.65
2019-02-05T12:27:14.893Z,64.60
2019-02-05T12:29:45.636Z,63.74
2019-02-05T12:32:16.376Z,63.33
2019-02-05T12:34:46.873Z,63.35
2019-02-05T12:37:17.288Z,63.06
2019-02-05T12:39:47.594Z,63.45
2019-02-05T12:42:17.770Z,63.33
2019-02-05T12:44:48.249Z,63.70
2019-02-05T12:47:18.987Z,61.45
2019-02-05T12:49:50.249Z,61.00
2019-02-05T12:52:20.787Z,61.14
2019-02-05T12:54:51.863Z,61.82
2019-02-05T12:57:23.932Z,62.53
2019-02-05T12:59:54.271Z,63.29
2019-02-05T13:02:24.486Z,64.25
2019-02-05T13:04:55.045Z,63.88
2019-02-05T13:07:25.821Z,63.30
2019-02-05T13:09:56.551Z,63.44
2019-02-05T13:12:27.208Z,63.23
2019-02-05T13:14:57.846Z,63.07
2019-02-05T13:17:28.246Z,65.47
2019-02-05T13:19:59.161Z,65.76
2019-02-05T13:22:29.981Z,66.43
2019-02-05T13:25:00.358Z,67.01
2019-02-05T13:27:32.053Z,66.89
2019-02-05T13:30:03.518Z,67.32
2019-02-05T13:32:33.983Z,67.89
2019-02-05T13:35:05.530Z,67.96
2019-02-05T13:37:35.761Z,67.96
2019-02-05T13:40:08.102Z,68.07
2019-02-05T13:42:39.231Z,68.07
2019-02-05T13:45:10.210Z,68.13
2019-02-05T13:47:40.606Z,67.94
2019-02-05T13:50:18.605Z,67.94
2019-02-05T13:52:49.273Z,68.59
2019-02-05T13:55:25.172Z,68.67
2019-02-05T13:57:55.634Z,68.77
2019-02-05T14:00:32.825Z,69.14
2019-02-05T14:03:03.411Z,68.46
2019-02-05T14:05:33.753Z,68.79
2019-02-05T14:08:04.198Z,68.79
2019-02-05T14:10:35.966Z,68.23
2019-02-05T14:13:07.347Z,68.52
2019-02-05T14:15:38.901Z,68.51
2019-02-05T14:18:10.090Z,69.10
2019-02-05T14:20:40.329Z,69.10
2019-02-05T14:23:10.881Z,69.73
2019-02-05T14:25:41.625Z,70.20
2019-02-05T14:28:12.202Z,70.27
2019-02-05T14:30:48.881Z,70.53
2019-02-05T14:33:19.452Z,70.90
2019-02-05T14:35:51.345Z,71.05
2019-02-05T14:38:23.084Z,71.05
2019-02-05T14:40:53.903Z,72.08
2019-02-05T14:43:24.896Z,72.08
2019-02-05T14:45:55.307Z,72.05
2019-02-05T14:48:25.978Z,72.56
2019-02-05T14:50:57.354Z,72.56
2019-02-05T14:53:28.046Z,72.75
2019-02-05T14:55:58.587Z,72.99
2019-02-05T14:58:28.829Z,73.02
2019-02-05T15:00:59.312Z,73.30
2019-02-05T15:03:29.773Z,73.91
2019-02-05T15:06:00.165Z,74.15
2019-02-05T15:08:30.482Z,74.85
2019-02-05T15:11:01.072Z,74.98
2019-02-05T15:13:31.517Z,75.20
2019-02-05T15:16:01.744Z,75.77
2019-02-05T15:18:32.389Z,76.12
2019-02-05T15:21:04.331Z,76.22
2019-02-05T15:23:34.853Z,76.31
2019-02-05T15:26:05.541Z,76.62
2019-02-05T15:28:35.802Z,77.04
2019-02-05T15:31:06.656Z,77.11
2019-02-05T15:33:59.758Z,77.31
2019-02-05T15:36:33.759Z,77.35
2019-02-05T15:39:06.274Z,77.75
2019-02-05T15:41:37.804Z,77.95
2019-02-05T15:44:08.253Z,77.83
2019-02-05T15:46:39.219Z,78.21
2019-02-05T15:49:09.595Z,78.27
2019-02-05T15:51:41.098Z,78.30
2019-02-05T15:54:11.636Z,78.48
2019-02-05T15:56:41.908Z,78.86
2019-02-05T15:59:12.414Z,79.24
2019-02-05T16:01:42.928Z,79.20
2019-02-05T16:04:13.100Z,79.63
2019-02-05T16:06:43.408Z,79.96
2019-02-05T16:09:14.896Z,79.91
2019-02-05T16:11:45.907Z,79.70
2019-02-05T16:14:16.053Z,79.56
2019-02-05T16:16:46.424Z,79.42
2019-02-05T16:19:16.921Z,79.41
2019-02-05T16:21:47.757Z,79.30
2019-02-05T16:24:18.594Z,79.80
2019-02-05T16:26:52.608Z,79.57
2019-02-05T16:29:23.981Z,79.69
2019-02-05T16:31:56.434Z,79.69
2019-02-05T16:34:28.449Z,79.73
2019-02-05T16:36:59.692Z,79.93
2019-02-05T16:39:31.235Z,80.34
2019-02-05T16:42:02.143Z,80.58
2019-02-05T16:44:32.930Z,80.73
2019-02-05T16:47:04.116Z,81.12
2019-02-05T16:49:35.179Z,81.40
2019-02-05T16:52:07.674Z,81.30
2019-02-05T16:54:38.459Z,81.54
2019-02-05T16:57:09.054Z,81.63
2019-02-05T16:59:39.776Z,81.81
2019-02-05T17:02:10.638Z,81.86
2019-02-05T17:04:41.196Z,81.98
2019-02-05T17:07:13.437Z,81.87
2019-02-05T17:09:44.193Z,81.58
2019-02-05T17:12:14.957Z,81.38
2019-02-05T17:14:45.598Z,80.93
2019-02-05T17:17:16.494Z,80.90
2019-02-05T17:19:47.018Z,80.79
2019-02-05T17:22:17.807Z,80.91
2019-02-05T17:24:48.639Z,80.73
2019-02-05T17:27:19.408Z,80.81
2019-02-05T17:29:50.712Z,80.87
2019-02-05T17:32:21.571Z,80.93
2019-02-05T17:34:52.624Z,80.84
2019-02-05T17:37:23.350Z,80.85
2019-02-05T17:39:54.780Z,80.72
2019-02-05T17:42:25.755Z,80.75
2019-02-05T17:44:57.240Z,80.76
2019-02-05T17:47:29.609Z,80.70
2019-02-05T17:50:00.767Z,80.63
2019-02-05T17:52:32.411Z,80.88
2019-02-05T17:55:03.803Z,81.13
2019-02-05T17:57:34.498Z,81.39
2019-02-05T18:00:11.915Z,81.36
2019-02-05T18:02:51.335Z,81.08
2019-02-05T18:05:15.682Z,81.15
2019-02-05T18:07:46.579Z,81.05
2019-02-05T18:10:19.218Z,81.15
2019-02-05T18:12:49.906Z,80.92
2019-02-05T18:15:29.682Z,81.09
2019-02-05T18:18:01.274Z,81.14
2019-02-05T18:20:32.023Z,81.13
2019-02-05T18:23:03.980Z,81.12
2019-02-05T18:25:34.380Z,81.28
2019-02-05T18:28:07.315Z,81.28
2019-02-05T18:30:39.118Z,81.24
2019-02-05T18:33:10.289Z,81.39
2019-02-05T18:35:41.044Z,81.32
2019-02-05T18:38:13.936Z,81.24
2019-02-05T18:40:46.031Z,80.98
2019-02-05T18:43:16.952Z,80.67
2019-02-05T18:45:47.714Z,80.79
2019-02-05T18:48:19.543Z,80.89
2019-02-05T18:50:50.341Z,81.21
2019-02-05T18:53:22.267Z,81.05
2019-02-05T18:55:53.118Z,81.16
2019-02-05T18:58:26.905Z,81.06
2019-02-05T19:00:59.495Z,81.25
2019-02-05T19:03:30.617Z,81.25
2019-02-05T19:06:01.529Z,81.10
2019-02-05T19:08:32.008Z,81.05
2019-02-05T19:11:03.036Z,80.86
2019-02-05T19:13:34.097Z,80.80
2019-02-05T19:16:05.624Z,80.80
2019-02-05T19:18:38.311Z,80.83
2019-02-05T19:21:09.504Z,80.83
2019-02-05T19:23:40.245Z,80.82
2019-02-05T19:26:33.507Z,80.07
2019-02-05T19:29:04.575Z,79.93
2019-02-05T19:31:38.569Z,79.72
2019-02-05T19:34:09.686Z,79.89
2019-02-05T19:36:40.705Z,80.44
2019-02-05T19:39:12.115Z,80.63
2019-02-05T19:41:42.794Z,80.92
2019-02-05T19:44:13.717Z,81.20
2019-02-05T19:47:06.959Z,81.19
2019-02-05T19:49:41.803Z,81.18
2019-02-05T19:52:13.378Z,81.25
2019-02-05T19:54:44.915Z,81.10
2019-02-05T19:57:16.337Z,80.90
2019-02-05T19:59:47.795Z,80.71
2019-02-05T20:02:18.749Z,80.36
2019-02-05T20:04:49.623Z,80.35
2019-02-05T20:07:20.777Z,79.89
2019-02-05T20:09:51.455Z,79.93
2019-02-05T20:12:22.545Z,79.98
2019-02-05T20:14:53.976Z,80.29
2019-02-05T20:17:25.173Z,80.45
2019-02-05T20:19:56.200Z,80.48
2019-02-05T20:22:27.380Z,80.57
2019-02-05T20:25:19.514Z,80.76
2019-02-05T20:27:50.328Z,80.85
2019-02-05T20:30:21.398Z,80.87
2019-02-05T20:32:52.548Z,80.85
2019-02-05T20:35:24.503Z,80.68
2019-02-05T20:37:55.924Z,80.64
2019-02-05T20:40:47.270Z,80.69
2019-02-05T20:43:18.085Z,80.42
2019-02-05T20:45:48.858Z,80.26
2019-02-05T20:48:20.704Z,80.19
2019-02-05T20:50:51.865Z,80.80
2019-02-05T20:53:23.145Z,80.69
2019-02-05T20:55:56.056Z,80.71
2019-02-05T20:58:28.553Z,80.89
2019-02-05T21:00:59.277Z,81.23
2019-02-05T21:03:30.289Z,81.15
2019-02-05T21:06:01.710Z,81.52
2019-02-05T21:08:32.789Z,81.78
2019-02-05T21:11:05.349Z,82.15
2019-02-05T21:13:36.210Z,82.30
2019-02-05T21:16:07.810Z,82.74
2019-02-05T21:18:38.432Z,82.71
2019-02-05T21:21:10.163Z,83.31
2019-02-05T21:23:42.442Z,83.59
2019-02-05T21:26:13.094Z,83.55
2019-02-05T21:28:44.383Z,83.60
2019-02-05T21:31:15.072Z,83.73
2019-02-05T21:33:45.869Z,83.63
2019-02-05T21:36:16.509Z,83.76
2019-02-05T21:38:47.180Z,83.41
2019-02-05T21:41:17.843Z,83.31
2019-02-05T21:43:50.564Z,83.48
2019-02-05T21:46:21.616Z,83.24
2019-02-05T21:48:52.606Z,83.27
2019-02-05T21:51:23.851Z,83.29
2019-02-05T21:53:55.197Z,83.19
2019-02-05T21:56:27.042Z,82.93
2019-02-05T21:58:58.383Z,82.93
2019-02-05T22:01:28.995Z,82.58
2019-02-05T22:03:59.658Z,82.37
2019-02-05T22:06:31.985Z,82.91
2019-02-05T22:09:05.992Z,82.94
2019-02-05T22:11:40.795Z,82.85
2019-02-05T22:14:10.368Z,82.91
2019-02-05T22:16:41.403Z,82.96
2019-02-05T22:19:12.421Z,82.88
2019-02-05T22:21:43.116Z,82.78
2019-02-05T22:24:13.772Z,82.51
2019-02-05T22:26:46.020Z,81.90
2019-02-05T22:29:16.716Z,82.06
2019-02-05T22:31:47.959Z,82.21
2019-02-05T22:34:19.084Z,82.09
2019-02-05T22:36:50.129Z,82.07
2019-02-05T22:39:20.745Z,82.27
2019-02-05T22:41:51.898Z,82.39
2019-02-05T22:44:24.626Z,82.60
2019-02-05T22:46:55.980Z,82.53
2019-02-05T22:49:27.144Z,82.61
2019-02-05T22:51:59.202Z,82.99
2019-02-05T22:54:29.845Z,82.75
2019-02-05T22:57:01.759Z,82.99
2019-02-05T22:59:33.066Z,83.13
2019-02-05T23:02:04.993Z,83.53
2019-02-05T23:05:14.444Z,83.74
2019-02-05T23:07:46.636Z,83.91
2019-02-05T23:11:03.825Z,83.44
2019-02-05T23:13:35.385Z,83.54
2019-02-05T23:16:06.497Z,83.57
2019-02-05T23:18:37.412Z,83.76
2019-02-05T23:21:08.320Z,84.22
2019-02-05T23:23:39.294Z,84.30
2019-02-05T23:26:11.173Z,84.24
2019-02-05T23:28:43.223Z,84.24
2019-02-05T23:31:13.814Z,84.22
2019-02-05T23:33:44.832Z,84.31
2019-02-05T23:36:15.851Z,84.28
2019-02-05T23:38:46.640Z,83.92
2019-02-05T23:41:17.499Z,84.16
2019-02-05T23:43:48.518Z,84.08
2019-02-05T23:46:20.582Z,84.08
2019-02-05T23:48:51.629Z,83.84
2019-02-05T23:51:22.498Z,83.71
2019-02-05T23:53:53.686Z,83.63
2019-02-05T23:56:25.653Z,83.77
2019-02-05T23:58:57.245Z,83.80
